Time;durP1;ratioP1;P1;durP2;ratioP2;P2;SDS_P1;SDS_P2;PMS_P1;PMS_P2;Temp;Humidity;BMP_temperature;BMP_pressure;BME280_temperature;BME280_humidity;BME280_pressure;Samples;Min_cycle;Max_cycle;Signal;HPM_P1;HPM_P2
2023/04/02 00:01:00;;;;;;;22.80;20.50;;;;;;;5.24;100.00;100840.03;6239143;23;20126;-88
2023/04/02 00:03:41;;;;;;;23.98;21.45;;;;;;;5.25;100.00;100846.16;6248195;23;20038;-88
2023/04/02 00:06:31;;;;;;;22.70;20.40;;;;;;;5.25;100.00;100844.41;6241700;23;20091;-87
2023/04/02 00:09:01;;;;;;;23.25;20.95;;;;;;;5.20;100.00;100850.72;6238811;23;20008;-87
2023/04/02 00:11:33;;;;;;;24.08;21.63;;;;;;;5.22;100.00;100859.44;6238165;23;20071;-88
2023/04/02 00:14:03;;;;;;;22.67;20.48;;;;;;;5.23;100.00;100863.84;6238924;23;20010;-89
2023/04/02 00:16:29;;;;;;;22.85;20.65;;;;;;;5.20;100.00;100872.69;6238402;23;20032;-88
2023/04/02 00:19:00;;;;;;;22.85;20.55;;;;;;;5.15;100.00;100869.31;6209281;23;20016;-87
2023/04/02 00:21:32;;;;;;;21.52;19.35;;;;;;;5.15;100.00;100869.31;6238740;23;20053;-87
2023/04/02 00:24:09;;;;;;;22.38;20.25;;;;;;;5.18;100.00;100876.28;6213848;23;20008;-86
2023/04/02 00:26:41;;;;;;;21.52;19.30;;;;;;;5.18;100.00;100879.81;6239366;23;20007;-86
2023/04/02 00:29:10;;;;;;;21.83;19.63;;;;;;;5.10;100.00;100886.16;6211962;23;20000;-86
2023/04/02 00:31:40;;;;;;;19.67;17.77;;;;;;;5.12;100.00;100876.47;6252188;23;19992;-86
2023/04/02 00:34:08;;;;;;;20.42;18.42;;;;;;;5.05;100.00;100872.25;6264624;22;19992;-85
2023/04/02 00:36:34;;;;;;;19.48;17.50;;;;;;;5.11;100.00;100890.56;6265735;23;19992;-86
2023/04/02 00:39:06;;;;;;;19.45;17.65;;;;;;;5.09;100.00;100895.00;6262899;22;20012;-86
2023/04/02 00:41:35;;;;;;;19.67;17.77;;;;;;;4.92;100.00;100872.59;6227272;23;20016;-87
2023/04/02 00:44:01;;;;;;;19.27;17.38;;;;;;;5.07;100.00;100886.28;6253854;23;20004;-87
2023/04/02 00:46:45;;;;;;;20.08;18.10;;;;;;;5.03;100.00;100895.19;6252146;23;20031;-84
2023/04/02 00:49:23;;;;;;;19.90;17.92;;;;;;;4.98;100.00;100898.81;6224830;23;20008;-86
2023/04/02 00:51:57;;;;;;;20.38;18.30;;;;;;;4.93;100.00;100902.47;6243565;23;20004;-88
2023/04/02 00:54:25;;;;;;;20.17;18.17;;;;;;;5.00;100.00;100912.81;6241363;23;20004;-86
2023/04/02 00:56:55;;;;;;;20.75;18.58;;;;;;;4.90;100.00;100913.97;6220948;23;20004;-87
2023/04/02 00:59:30;;;;;;;21.30;19.20;;;;;;;4.98;100.00;100924.31;6246538;23;20015;-87
2023/04/02 01:02:13;;;;;;;22.40;20.10;;;;;;;4.95;100.00;100920.00;6220186;23;20058;-87
2023/04/02 01:04:39;;;;;;;22.02;19.80;;;;;;;4.95;100.00;100937.59;6248291;23;20008;-88
2023/04/02 01:07:09;;;;;;;21.13;19.13;;;;;;;4.90;100.00;100943.00;6241505;23;20083;-88
2023/04/02 01:09:54;;;;;;;20.65;18.73;;;;;;;4.87;100.00;100952.75;6240209;23;20015;-86
2023/04/02 01:12:38;;;;;;;20.83;18.73;;;;;;;4.83;100.00;100957.22;6238751;23;20079;-87
2023/04/02 01:15:15;;;;;;;22.17;19.92;;;;;;;4.79;100.00;100954.72;6241073;23;20007;-88
2023/04/02 01:17:57;;;;;;;21.95;19.58;;;;;;;4.79;100.00;100965.25;6211029;23;20000;-86
2023/04/02 01:20:37;;;;;;;22.92;20.67;;;;;;;4.78;100.00;100966.16;6238840;23;20012;-87
2023/04/02 01:23:26;;;;;;;22.33;20.13;;;;;;;4.69;100.00;100960.22;6239495;23;20027;-87
2023/04/02 01:25:58;;;;;;;22.52;20.23;;;;;;;4.72;100.00;100972.44;6240550;23;20012;-87
2023/04/02 01:28:34;;;;;;;22.77;20.42;;;;;;;4.69;100.00;100969.91;6237505;23;20031;-86
2023/04/02 01:31:01;;;;;;;22.00;19.88;;;;;;;4.54;100.00;100957.09;6211286;23;20022;-88
2023/04/02 01:33:33;;;;;;;21.50;19.33;;;;;;;4.63;100.00;100977.94;6237533;23;20003;-87
2023/04/02 01:36:15;;;;;;;20.77;18.67;;;;;;;4.59;100.00;100978.91;6211372;23;20103;-87
2023/04/02 01:38:56;;;;;;;20.88;18.80;;;;;;;4.56;100.00;100984.28;6236060;23;20362;-87
2023/04/02 01:41:38;;;;;;;18.20;16.50;;;;;;;4.45;100.00;100980.13;6237409;23;20012;-87
2023/04/02 01:44:08;;;;;;;18.77;16.95;;;;;;;4.58;100.00;100999.16;6211243;23;20111;-89
2023/04/02 01:46:37;;;;;;;20.27;18.17;;;;;;;4.55;100.00;101001.84;6236173;23;20008;-88
2023/04/02 01:49:12;;;;;;;19.40;17.55;;;;;;;4.47;100.00;100991.50;6210394;23;20015;-87
2023/04/02 01:51:43;;;;;;;19.30;17.50;;;;;;;4.44;100.00;100996.84;6237115;23;20018;-88
2023/04/02 01:54:09;;;;;;;19.15;17.15;;;;;;;4.52;100.00;101014.25;6237751;23;20011;-88
2023/04/02 01:56:35;;;;;;;18.98;17.27;;;;;;;4.50;100.00;101020.41;6237149;23;20007;-86
2023/04/02 01:59:04;;;;;;;19.25;17.45;;;;;;;4.38;100.00;101004.88;6236663;23;20008;-86
2023/04/02 02:01:35;;;;;;;20.23;18.30;;;;;;;4.49;100.00;101036.28;6241413;23;20020;-86
2023/04/02 02:04:01;;;;;;;21.17;18.98;;;;;;;4.45;100.00;101032.84;6251757;23;20000;-86
2023/04/02 02:06:26;;;;;;;22.05;19.90;;;;;;;4.50;100.00;101043.28;6215742;23;20004;-86
2023/04/02 02:09:02;;;;;;;22.15;19.83;;;;;;;4.41;100.00;101033.81;6212753;23;20477;-88
2023/04/02 02:11:29;;;;;;;22.15;20.00;;;;;;;4.40;100.00;101039.13;6239881;23;20011;-87
2023/04/02 02:13:58;;;;;;;22.23;20.02;;;;;;;4.45;100.00;101048.66;6212970;23;20010;-88
2023/04/02 02:16:28;;;;;;;24.02;21.63;;;;;;;4.46;100.00;101058.28;6238825;23;20004;-87
2023/04/02 02:19:03;;;;;;;22.35;20.05;;;;;;;4.42;100.00;101061.88;6211164;23;20034;-87
2023/04/02 02:21:45;;;;;;;20.48;18.48;;;;;;;4.42;100.00;101064.53;6237396;23;20042;-86
2023/04/02 02:24:21;;;;;;;18.17;16.35;;;;;;;4.39;100.00;101072.50;6237760;23;20414;-87
2023/04/02 02:27:03;;;;;;;15.82;14.35;;;;;;;4.30;100.00;101069.19;6238419;23;20000;-87
2023/04/02 02:29:32;;;;;;;14.77;13.40;;;;;;;4.32;100.00;101070.03;6210521;23;20018;-88
2023/04/02 02:32:00;;;;;;;14.25;12.85;;;;;;;4.22;100.00;101054.44;6238282;23;20011;-88
2023/04/02 02:34:36;;;;;;;13.98;12.52;;;;;;;4.34;100.00;101078.75;6211002;23;20318;-88
2023/04/02 02:37:16;;;;;;;13.32;12.02;;;;;;;4.30;100.00;101082.38;6209912;23;20015;-87
2023/04/02 02:39:44;;;;;;;15.73;14.30;;;;;;;4.32;100.00;101094.63;6237392;23;20011;-87
2023/04/02 02:42:17;;;;;;;17.13;15.52;;;;;;;4.32;100.00;101102.53;6236163;23;20074;-87
2023/04/02 02:44:46;;;;;;;15.95;14.35;;;;;;;4.29;100.00;101110.47;6238075;23;20206;-86
2023/04/02 02:47:21;;;;;;;15.52;14.05;;;;;;;4.29;100.00;101112.25;6237688;23;20067;-87
2023/04/02 02:49:51;;;;;;;13.95;12.55;;;;;;;4.05;100.00;101076.72;6236012;23;20141;-87
2023/04/02 02:52:37;;;;;;;14.35;13.05;;;;;;;4.17;100.00;101108.09;6239093;23;20090;-88
2023/04/02 02:55:11;;;;;;;15.25;13.82;;;;;;;4.04;100.00;101091.69;6212719;23;20008;-87
2023/04/02 02:57:41;;;;;;;16.48;14.90;;;;;;;4.14;100.00;101110.78;6211711;23;20008;-88
2023/04/02 03:00:10;;;;;;;15.98;14.48;;;;;;;4.25;100.00;101135.16;6262504;22;19999;-86
2023/04/02 03:02:38;;;;;;;16.60;14.90;;;;;;;4.17;100.00;101132.69;6266267;22;20012;-87
2023/04/02 03:05:04;;;;;;;16.38;14.77;;;;;;;4.21;100.00;101149.28;6265827;23;20052;-88
2023/04/02 03:07:30;;;;;;;15.38;13.95;;;;;;;4.17;100.00;101161.66;6236483;23;20028;-88
2023/04/02 03:10:02;;;;;;;14.23;12.93;;;;;;;4.13;100.00;101159.97;6262056;23;20207;-88
2023/04/02 03:12:57;;;;;;;14.35;13.05;;;;;;;4.11;100.00;101155.66;6260652;23;19984;-88
2023/04/02 03:15:39;;;;;;;14.98;13.40;;;;;;;4.07;100.00;101157.47;6238598;23;20008;-89
2023/04/02 03:18:19;;;;;;;14.10;12.80;;;;;;;4.11;100.00;101174.97;6238627;23;20001;-88
2023/04/02 03:20:50;;;;;;;14.10;12.80;;;;;;;4.01;100.00;101165.47;6239328;23;20004;-87
2023/04/02 03:23:41;;;;;;;14.45;13.05;;;;;;;4.07;100.00;101180.31;6241038;23;20031;-87
2023/04/02 03:26:48;;;;;;;14.95;13.55;;;;;;;4.06;100.00;101186.50;6240472;23;20004;-87
2023/04/02 03:29:25;;;;;;;13.55;12.15;;;;;;;4.00;100.00;101192.72;6239362;23;20011;-86
2023/04/02 03:31:58;;;;;;;13.32;12.02;;;;;;;3.96;100.00;101199.81;6241586;23;20030;-89
2023/04/02 03:34:41;;;;;;;14.23;12.73;;;;;;;3.92;100.00;101205.16;6239063;23;20016;-85
2023/04/02 03:37:27;;;;;;;13.70;12.32;;;;;;;3.98;100.00;101224.38;6237227;23;20032;-87
2023/04/02 03:40:07;;;;;;;13.27;12.07;;;;;;;3.89;100.00;101215.75;6237860;23;20004;-86
2023/04/02 03:42:41;;;;;;;12.82;11.63;;;;;;;3.89;100.00;101229.78;6237607;23;20035;-85
2023/04/02 03:45:18;;;;;;;13.27;11.98;;;;;;;3.89;100.00;101234.19;6237535;23;20001;-87
2023/04/02 03:47:54;;;;;;;14.13;12.45;;;;;;;3.80;100.00;101236.97;6209324;23;20444;-87
2023/04/02 03:50:26;;;;;;;13.45;12.13;;;;;;;3.88;100.00;101242.97;6237271;23;20450;-88
2023/04/02 03:52:52;;;;;;;13.10;11.80;;;;;;;3.85;100.00;101257.06;6238861;23;20067;-88
2023/04/02 03:55:24;;;;;;;11.95;10.85;;;;;;;3.81;100.00;101252.75;6238698;23;20027;-88
2023/04/02 03:58:13;;;;;;;13.07;11.73;;;;;;;3.81;100.00;101271.19;6238069;23;20008;-87
2023/04/02 04:00:43;;;;;;;13.18;11.85;;;;;;;3.85;100.00;101264.97;6237973;23;20004;-88
2023/04/02 04:03:15;;;;;;;12.48;11.27;;;;;;;3.81;100.00;101273.81;6219968;23;20004;-85
2023/04/02 04:05:56;;;;;;;12.55;11.35;;;;;;;3.82;100.00;101275.53;6249506;23;20434;-88
2023/04/02 04:08:25;;;;;;;11.77;10.57;;;;;;;3.69;100.00;101258.22;6238924;23;20007;-86
2023/04/02 04:10:55;;;;;;;12.63;11.30;;;;;;;3.75;100.00;101274.75;6212768;23;20023;-87
2023/04/02 04:13:28;;;;;;;13.02;11.75;;;;;;;3.77;100.00;101276.53;6212909;23;20516;-87
2023/04/02 04:16:01;;;;;;;13.68;12.27;;;;;;;3.62;100.00;101262.69;6213360;23;20120;-87
2023/04/02 04:18:48;;;;;;;15.35;13.30;;;;;;;3.80;100.00;101290.47;6238558;23;20011;-88
2023/04/02 04:21:29;;;;;;;14.18;12.70;;;;;;;3.81;100.00;101300.16;6213345;23;20004;-87
2023/04/02 04:24:02;;;;;;;15.35;13.20;;;;;;;3.85;100.00;101309.75;6239831;23;20004;-88
2023/04/02 04:26:33;;;;;;;14.23;12.82;;;;;;;3.85;100.00;101322.03;6211844;23;20023;-88
2023/04/02 04:29:24;;;;;;;18.17;15.57;;;;;;;3.84;100.00;101318.50;6213645;23;20019;-87
2023/04/02 04:31:54;;;;;;;18.25;15.95;;;;;;;3.79;100.00;101330.88;6238792;23;20298;-87
2023/04/02 04:34:41;;;;;;;17.60;15.77;;;;;;;3.74;100.00;101335.34;6239870;23;20066;-87
2023/04/02 04:37:20;;;;;;;19.05;17.10;;;;;;;3.60;100.00;101332.94;6212820;23;20034;-86
2023/04/02 04:40:10;;;;;;;18.77;16.58;;;;;;;3.54;100.00;101329.50;6241625;23;20004;-87
2023/04/02 04:42:39;;;;;;;18.75;16.85;;;;;;;3.40;100.00;101322.69;6238793;23;20016;-87
2023/04/02 04:45:15;;;;;;;18.17;16.23;;;;;;;3.62;100.00;101362.72;6212086;23;20011;-87
2023/04/02 04:47:48;;;;;;;17.42;15.63;;;;;;;3.60;100.00;101364.53;6238281;23;20011;-87
2023/04/02 04:50:25;;;;;;;16.83;15.13;;;;;;;3.59;100.00;101378.56;6240012;23;20019;-88
2023/04/02 04:52:50;;;;;;;17.23;15.43;;;;;;;3.50;100.00;101357.63;6240027;23;20057;-86
2023/04/02 04:55:28;;;;;;;18.40;15.68;;;;;;;3.44;100.00;101366.47;6238580;23;20420;-88
2023/04/02 04:57:59;;;;;;;17.70;15.88;;;;;;;3.44;100.00;101379.63;6238168;23;20039;-87
2023/04/02 05:00:49;;;;;;;16.67;15.07;;;;;;;3.47;100.00;101395.41;6211100;23;20107;-87
2023/04/02 05:03:27;;;;;;;15.95;14.32;;;;;;;3.38;100.00;101397.25;6239229;23;20007;-88
2023/04/02 05:05:53;;;;;;;17.10;15.48;;;;;;;3.31;100.00;101377.19;6236899;23;20007;-87
2023/04/02 05:08:24;;;;;;;16.52;14.60;;;;;;;3.31;100.00;101395.59;6238294;23;20307;-87
2023/04/02 05:10:55;;;;;;;17.30;15.27;;;;;;;3.24;100.00;101393.03;6238017;23;20153;-87
2023/04/02 05:13:32;;;;;;;16.55;14.73;;;;;;;3.03;100.00;101364.34;6238974;23;20105;-90
2023/04/02 05:16:12;;;;;;;16.73;14.43;;;;;;;3.32;100.00;101435.03;6237127;23;20064;-88
2023/04/02 05:18:49;;;;;;;17.27;15.18;;;;;;;3.30;100.00;101433.31;6237787;23;20003;-87
2023/04/02 05:21:31;;;;;;;15.52;13.93;;;;;;;3.26;100.00;101440.41;6239277;23;20032;-87
2023/04/02 05:24:31;;;;;;;16.77;15.02;;;;;;;3.27;100.00;101442.13;6244856;23;20010;-88
2023/04/02 05:27:02;;;;;;;17.15;15.38;;;;;;;3.16;100.00;101434.34;6265970;22;20001;-88
2023/04/02 05:29:33;;;;;;;16.48;14.88;;;;;;;3.25;100.00;101455.28;6266453;22;20062;-88
2023/04/02 05:32:18;;;;;;;18.10;14.95;;;;;;;3.13;100.00;101444.88;6266890;22;20007;-88
2023/04/02 05:34:49;;;;;;;17.85;15.07;;;;;;;3.18;100.00;101460.66;6267150;22;19992;-89
2023/04/02 05:37:20;;;;;;;18.27;14.70;;;;;;;3.19;100.00;101459.75;6254649;23;20043;-88
2023/04/02 05:39:55;;;;;;;16.00;14.40;;;;;;;3.17;100.00;101461.50;6214933;23;20425;-88
2023/04/02 05:42:23;;;;;;;16.52;13.93;;;;;;;3.17;100.00;101464.13;6215337;23;20019;-89
2023/04/02 05:45:11;;;;;;;15.63;14.02;;;;;;;3.24;100.00;101486.88;6241925;23;20444;-88
2023/04/02 05:47:41;;;;;;;15.68;13.25;;;;;;;3.14;100.00;101485.25;6225093;23;20012;-88
2023/04/02 05:50:06;;;;;;;15.35;13.80;;;;;;;3.23;100.00;101493.03;6215722;23;20004;-89
2023/04/02 05:52:39;;;;;;;14.82;13.25;;;;;;;3.19;100.00;101497.44;6214050;23;20107;-89
2023/04/02 05:55:31;;;;;;;15.55;13.88;;;;;;;3.24;100.00;101498.28;6241221;23;20011;-89
2023/04/02 05:58:06;;;;;;;16.02;12.98;;;;;;;3.19;100.00;101489.56;6239687;23;20152;-90
2023/04/02 06:00:38;;;;;;;15.75;12.30;;;;;;;3.27;100.00;101515.78;6212336;23;20062;-89
2023/04/02 06:03:45;;;;;;;15.00;12.55;;;;;;;3.26;100.00;101516.69;6255792;23;20030;-87
2023/04/02 06:06:26;;;;;;;14.25;12.13;;;;;;;3.20;100.00;101533.38;6217178;23;20390;-88
2023/04/02 06:08:59;;;;;;;15.52;12.65;;;;;;;3.18;100.00;101539.56;6238519;23;20000;-91
2023/04/02 06:11:30;;;;;;;14.00;11.73;;;;;;;3.18;100.00;101543.06;6239190;23;20099;-89
2023/04/02 06:13:56;;;;;;;12.88;11.57;;;;;;;3.08;100.00;101532.63;6239063;23;20000;-87
2023/04/02 06:16:25;;;;;;;14.25;11.73;;;;;;;3.15;100.00;101545.72;6239311;23;20066;-88
2023/04/02 06:18:51;;;;;;;12.88;11.57;;;;;;;3.16;100.00;101550.09;6238081;23;20050;-88
2023/04/02 06:21:19;;;;;;;12.48;11.18;;;;;;;3.06;100.00;101539.66;6237986;23;20004;-88
2023/04/02 06:23:52;;;;;;;11.43;10.32;;;;;;;3.15;100.00;101556.22;6211559;23;20004;-89
2023/04/02 06:26:41;;;;;;;12.30;11.00;;;;;;;3.23;100.00;101550.91;6212535;23;20551;-88
2023/04/02 06:29:37;;;;;;;13.38;11.02;;;;;;;3.26;100.00;101574.56;6211658;23;20008;-88
2023/04/02 06:32:05;;;;;;;13.02;11.05;;;;;;;3.29;100.00;101579.78;6238410;23;20004;-90
2023/04/02 06:34:31;;;;;;;12.40;11.18;;;;;;;3.28;100.00;101575.41;6211189;23;20430;-89
2023/04/02 06:36:59;;;;;;;12.23;11.02;;;;;;;3.25;100.00;101575.44;6237011;23;20088;-88
2023/04/02 06:39:26;;;;;;;12.40;11.05;;;;;;;3.11;100.00;101553.66;6236535;23;20055;-88
2023/04/02 06:42:06;;;;;;;12.77;11.52;;;;;;;3.38;100.00;101602.50;6236542;23;20091;-88
2023/04/02 06:44:35;;;;;;;13.32;11.93;;;;;;;3.32;100.00;101598.19;6238186;23;20096;-90
2023/04/02 06:47:30;;;;;;;14.20;12.75;;;;;;;3.43;100.00;101613.88;6210364;23;20094;-88
2023/04/02 06:50:15;;;;;;;14.10;12.60;;;;;;;3.24;100.00;101602.63;6238779;23;20835;-90
2023/04/02 06:52:51;;;;;;;14.02;12.63;;;;;;;3.35;100.00;101623.59;6211730;23;20003;-88
2023/04/02 06:55:36;;;;;;;12.65;11.30;;;;;;;3.22;100.00;101607.06;6238544;23;20422;-88
2023/04/02 06:58:04;;;;;;;12.27;10.98;;;;;;;3.14;100.00;101608.88;6239909;23;20454;-87
2023/04/02 07:00:39;;;;;;;12.27;10.93;;;;;;;3.15;100.00;101626.38;6212259;23;20008;-87
2023/04/02 07:03:12;;;;;;;12.40;10.30;;;;;;;3.30;100.00;101646.44;6246184;23;20002;-90
2023/04/02 07:05:37;;;;;;;11.95;10.75;;;;;;;3.21;100.00;101636.84;6218520;23;20004;-92
2023/04/02 07:08:03;;;;;;;11.73;10.52;;;;;;;3.32;100.00;101652.56;6239892;23;20570;-90
2023/04/02 07:10:28;;;;;;;11.00;9.90;;;;;;;3.25;100.00;101630.69;6213269;23;20008;-91
2023/04/02 07:12:54;;;;;;;11.82;10.68;;;;;;;3.25;100.00;101638.56;6218605;23;20004;-91
2023/04/02 07:15:19;;;;;;;11.10;9.82;;;;;;;3.34;100.00;101666.56;6241717;23;20004;-91
2023/04/02 07:17:57;;;;;;;10.25;9.05;;;;;;;2.99;100.00;101605.44;6247657;23;20000;-89
2023/04/02 07:20:28;;;;;;;13.10;9.50;;;;;;;3.45;100.00;101686.66;6250034;23;20436;-90
2023/04/02 09:06:17;;;;;;;4.28;3.40;;;;;;;4.27;99.21;101887.03;6269063;22;20046;-88
2023/04/02 09:08:45;;;;;;;4.40;4.00;;;;;;;4.13;98.45;101858.16;6241188;22;20024;-90
2023/04/02 09:11:35;;;;;;;4.47;3.45;;;;;;;4.27;98.18;101897.59;6269073;22;20014;-88
2023/04/02 09:14:07;;;;;;;4.90;3.65;;;;;;;3.92;99.17;101851.28;6241602;22;20007;-89
2023/04/02 09:16:40;;;;;;;7.55;4.50;;;;;;;4.03;100.00;101858.25;6240602;22;20426;-90
2023/04/02 09:19:19;;;;;;;5.30;3.85;;;;;;;3.62;98.23;101831.31;6269771;22;20003;-88
2023/04/02 09:21:55;;;;;;;5.55;3.60;;;;;;;3.70;100.00;101841.78;6269153;22;20441;-90
2023/04/02 09:24:24;;;;;;;4.90;3.70;;;;;;;3.85;98.66;101877.69;6240267;22;20141;-89
2023/04/02 09:26:49;;;;;;;6.30;3.50;;;;;;;3.89;100.00;101882.94;6240415;22;20007;-91
2023/04/02 09:29:23;;;;;;;5.90;3.58;;;;;;;3.91;100.00;101888.19;6241751;22;20452;-89
2023/04/02 09:32:23;;;;;;;5.30;3.42;;;;;;;4.20;100.00;101935.41;6241854;22;20011;-90
2023/04/02 09:34:48;;;;;;;4.43;3.63;;;;;;;3.96;98.26;101900.41;6267932;22;20033;-90
2023/04/02 09:37:17;;;;;;;4.88;3.63;;;;;;;4.31;99.75;101927.44;6241914;22;20011;-89
2023/04/02 09:39:51;;;;;;;6.75;3.78;;;;;;;4.56;98.17;101936.88;6268998;22;19999;-90
2023/04/02 09:42:40;;;;;;;5.78;3.25;;;;;;;4.14;97.48;101891.53;6270285;22;20032;-90
2023/04/02 09:45:54;;;;;;;4.78;3.22;;;;;;;4.45;98.26;101938.72;6280736;22;20026;-90
2023/04/02 09:48:37;;;;;;;4.07;3.50;;;;;;;4.06;97.76;101914.44;6154189;23;20096;-89
2023/04/02 09:51:27;;;;;;;5.27;3.73;;;;;;;4.33;98.83;101952.88;6145995;23;20505;-87
2023/04/02 09:54:15;;;;;;;6.57;3.72;;;;;;;4.38;98.57;101960.75;6144938;23;20010;-87
2023/04/02 09:57:01;;;;;;;5.35;3.70;;;;;;;4.35;98.44;101977.47;6139397;23;20184;-90
2023/04/02 09:59:26;;;;;;;5.13;3.22;;;;;;;3.95;97.25;101940.81;6144339;23;20088;-88
2023/04/02 10:01:54;;;;;;;6.55;3.65;;;;;;;4.33;98.28;101996.81;6143276;23;20013;-93
2023/04/02 10:04:43;;;;;;;5.22;3.33;;;;;;;4.46;98.88;102001.97;6145838;23;20046;-87
2023/04/02 10:07:29;;;;;;;4.40;3.33;;;;;;;4.42;97.60;101986.19;6147419;23;20009;-87
2023/04/02 10:10:17;;;;;;;4.03;3.28;;;;;;;4.47;98.11;102006.38;6153903;23;20012;-86
2023/04/02 10:12:47;;;;;;;3.78;3.20;;;;;;;4.37;97.20;101986.22;6173340;23;20001;-87
2023/04/02 10:15:20;;;;;;;6.05;3.70;;;;;;;4.54;96.82;102007.19;6172743;23;20021;-85
2023/04/02 10:17:53;;;;;;;4.07;3.20;;;;;;;4.49;95.97;101994.06;6173535;23;20001;-89
2023/04/02 10:20:23;;;;;;;5.05;3.47;;;;;;;4.41;95.01;102008.19;6147258;23;20253;-88
2023/04/02 10:22:48;;;;;;;4.50;2.97;;;;;;;4.39;96.47;102004.66;6270601;22;20012;-89
2023/04/02 10:25:16;;;;;;;4.95;3.50;;;;;;;4.39;95.97;102023.13;6290692;22;20059;-88
2023/04/02 10:28:08;;;;;;;4.18;3.05;;;;;;;4.28;96.45;102017.94;6243470;22;20087;-88
2023/04/02 10:30:52;;;;;;;3.92;3.47;;;;;;;4.32;96.98;102035.47;6271431;22;20010;-89
2023/04/02 10:33:28;;;;;;;5.10;3.70;;;;;;;4.17;95.85;102020.59;6245144;22;20019;-88
2023/04/02 10:36:34;;;;;;;8.88;3.58;;;;;;;4.36;96.37;102044.25;6271137;22;20432;-88
2023/04/02 10:39:18;;;;;;;4.68;3.45;;;;;;;4.30;97.38;102053.03;6244100;22;20008;-88
2023/04/02 10:42:18;;;;;;;5.47;3.30;;;;;;;4.25;95.95;102049.56;6240909;22;20008;-91
2023/04/02 10:44:47;;;;;;;4.78;3.22;;;;;;;4.24;96.39;102053.97;6268901;22;20011;-89
2023/04/02 10:47:29;;;;;;;4.68;3.25;;;;;;;4.37;96.56;102060.03;6241342;22;20012;-89
2023/04/02 10:50:30;;;;;;;4.30;3.50;;;;;;;4.37;97.21;102040.72;6267788;22;20014;-89
2023/04/02 10:53:14;;;;;;;4.63;3.17;;;;;;;4.48;95.78;102066.13;6240203;22;20008;-88
2023/04/02 10:55:50;;;;;;;4.55;2.90;;;;;;;4.39;95.55;102062.66;6239201;22;20047;-90
2023/04/02 10:58:25;;;;;;;5.03;2.90;;;;;;;4.57;96.03;102049.38;6266673;22;20007;-90
2023/04/02 11:00:55;;;;;;;4.82;3.75;;;;;;;4.70;96.85;102056.31;6240886;22;20007;-91
2023/04/02 11:03:43;;;;;;;5.25;3.38;;;;;;;4.85;95.18;102073.78;6266680;22;20067;-87
2023/04/02 11:06:23;;;;;;;5.38;3.20;;;;;;;4.83;93.78;102077.31;6241378;22;20102;-90
2023/04/02 11:08:54;;;;;;;4.55;2.85;;;;;;;4.87;93.63;102077.28;6240491;22;20011;-89
2023/04/02 11:11:35;;;;;;;3.72;2.70;;;;;;;5.14;93.28;102083.22;6241859;22;20058;-91
2023/04/02 11:14:14;;;;;;;4.00;2.92;;;;;;;5.19;90.92;102084.94;6266167;22;20063;-89
2023/04/02 11:16:40;;;;;;;4.65;3.15;;;;;;;5.25;91.43;102068.16;6266233;22;20033;-90
2023/04/02 11:19:15;;;;;;;4.72;2.90;;;;;;;5.48;92.08;102092.59;6239229;22;20019;-90
2023/04/02 11:21:54;;;;;;;4.80;3.03;;;;;;;5.37;89.85;102099.72;6241772;22;20033;-88
2023/04/02 11:24:45;;;;;;;4.45;3.10;;;;;;;5.29;91.29;102091.00;6267513;22;20077;-90
2023/04/02 11:27:10;;;;;;;4.85;3.10;;;;;;;5.21;88.85;102112.19;6248672;22;20107;-88
2023/04/02 11:30:05;;;;;;;4.40;3.03;;;;;;;5.29;91.33;102111.25;6239940;22;20482;-88
2023/04/02 11:32:35;;;;;;;3.40;3.10;;;;;;;5.26;89.88;102112.16;6240495;22;20345;-90
2023/04/02 11:35:30;;;;;;;4.72;2.90;;;;;;;5.19;91.45;102084.94;6240355;22;20011;-90
2023/04/02 15:29:46;;;;;;;3.72;2.63;;;;;;;8.77;64.29;102300.44;6204894;23;20044;-86
2023/04/02 15:32:34;;;;;;;3.90;2.80;;;;;;;8.87;63.74;102316.16;6177618;23;20016;-86
2023/04/02 15:35:21;;;;;;;3.75;2.67;;;;;;;8.89;63.84;102310.81;6205738;23;20035;-88
2023/04/02 15:37:58;;;;;;;4.75;3.00;;;;;;;8.85;62.77;102314.44;6206424;23;20005;-88
2023/04/02 15:40:50;;;;;;;4.38;2.88;;;;;;;8.71;62.25;102312.94;6179445;23;20405;-85
2023/04/02 15:43:27;;;;;;;4.13;2.78;;;;;;;8.65;64.26;102312.16;6205151;23;20369;-88
2023/04/02 15:46:05;;;;;;;5.82;3.00;;;;;;;8.35;61.25;102309.16;6204945;23;20020;-84
2023/04/02 15:48:37;;;;;;;4.53;3.03;;;;;;;8.28;62.25;102318.16;6207956;23;20011;-84
2023/04/02 15:51:05;;;;;;;5.53;2.45;;;;;;;8.10;62.17;102321.97;6180807;23;20012;-85
2023/04/02 15:54:25;;;;;;;5.25;2.97;;;;;;;8.10;63.97;102323.75;6179969;23;20019;-84
2023/04/02 15:57:11;;;;;;;4.68;2.90;;;;;;;8.06;64.21;102328.22;6115350;23;20014;-86
2023/04/02 15:59:55;;;;;;;4.45;2.90;;;;;;;8.18;66.10;102321.84;6118519;23;20013;-87
2023/04/02 16:02:22;;;;;;;;;;;;;;;8.17;65.12;102320.09;6141015;23;19998;-86
2023/04/02 16:05:03;;;;;;;4.43;2.80;;;;;;;7.98;64.28;102323.09;6144963;23;19901;-85
2023/04/02 16:08:01;;;;;;;5.07;3.28;;;;;;;7.98;65.60;102336.34;6118824;23;20033;-85
2023/04/02 16:10:35;;;;;;;3.55;3.00;;;;;;;7.89;65.15;102336.47;6140593;23;20010;-85
2023/04/02 16:13:02;;;;;;;3.40;3.10;;;;;;;7.83;66.97;102333.94;6141797;23;20009;-92
2023/04/02 16:15:39;;;;;;;4.68;3.35;;;;;;;7.77;65.05;102351.69;6141708;23;20083;-85
2023/04/02 16:18:11;;;;;;;2.83;2.55;;;;;;;7.65;65.21;102347.44;6118474;23;20017;-86
2023/04/02 16:20:47;;;;;;;4.22;2.88;;;;;;;7.61;65.56;102351.94;6116292;23;20016;-86
2023/04/02 16:23:23;;;;;;;3.00;2.70;;;;;;;7.61;64.76;102351.06;6115650;23;20006;-87
2023/04/02 16:26:02;;;;;;;3.90;2.65;;;;;;;7.58;65.79;102357.25;6118494;23;20013;-86
2023/04/02 16:28:38;;;;;;;3.45;3.08;;;;;;;7.62;66.11;102358.09;6188327;23;20139;-86
2023/04/02 16:31:48;;;;;;;2.95;2.42;;;;;;;7.67;66.65;102350.97;6194572;23;20016;-84
2023/04/02 16:34:40;;;;;;;5.13;2.80;;;;;;;7.69;65.48;102362.41;6176625;23;20062;-86
2023/04/02 16:37:09;;;;;;;4.88;3.05;;;;;;;7.66;66.72;102362.47;6180111;23;20036;-85
2023/04/02 16:39:52;;;;;;;7.20;2.92;;;;;;;7.63;66.67;102366.03;6152961;23;20009;-86
2023/04/02 16:42:28;;;;;;;4.45;2.53;;;;;;;7.55;67.28;102362.59;6178659;23;20013;-87
2023/04/02 16:45:06;;;;;;;3.92;2.70;;;;;;;7.56;65.63;102368.78;6178225;23;20013;-88
2023/04/02 17:00:40;;;;;;;5.72;2.92;;;;;;;7.40;67.30;102405.22;6231943;22;20493;-85
2023/04/02 17:03:17;;;;;;;3.28;2.55;;;;;;;7.35;66.36;102401.72;6236296;23;20052;-86
2023/04/02 17:05:57;;;;;;;4.97;2.83;;;;;;;7.18;65.76;102392.22;6235345;23;20100;-86
2023/04/02 17:08:25;;;;;;;4.07;2.83;;;;;;;7.14;67.86;102406.38;6209747;23;20441;-87
2023/04/02 17:11:06;;;;;;;5.03;2.50;;;;;;;7.08;68.61;102413.53;6236776;23;20015;-88
2023/04/02 17:13:41;;;;;;;6.20;2.60;;;;;;;6.86;66.18;102399.66;6209861;23;20004;-88
2023/04/02 17:16:13;;;;;;;3.92;2.30;;;;;;;6.91;67.99;102419.00;6238287;23;20012;-89
2023/04/02 17:18:42;;;;;;;5.20;2.53;;;;;;;6.86;67.81;102427.00;6210333;23;20012;-87
2023/04/02 17:21:13;;;;;;;4.63;2.85;;;;;;;6.76;68.55;102417.38;6235334;23;20073;-88
2023/04/02 17:23:58;;;;;;;4.40;2.63;;;;;;;6.74;68.68;102420.06;6237414;23;20780;-87
2023/04/02 17:26:27;;;;;;;3.83;2.60;;;;;;;6.78;68.84;102431.50;6210056;23;20008;-88
2023/04/02 17:28:56;;;;;;;3.03;2.67;;;;;;;6.74;66.87;102430.66;6237323;23;20273;-86
2023/04/02 17:31:24;;;;;;;5.05;2.70;;;;;;;6.72;66.80;102434.19;6235992;23;20057;-87
2023/04/02 17:33:49;;;;;;;3.28;2.78;;;;;;;6.70;67.73;102446.56;6237334;23;20023;-86
2023/04/02 17:36:26;;;;;;;4.25;2.55;;;;;;;6.64;68.52;102449.25;6240003;23;20362;-87
2023/04/02 17:38:58;;;;;;;5.00;3.05;;;;;;;6.60;68.47;102453.69;6214952;23;20075;-88
2023/04/02 17:41:39;;;;;;;3.90;2.70;;;;;;;6.61;68.56;102468.69;6241557;23;20004;-87
2023/04/02 17:44:30;;;;;;;3.13;2.53;;;;;;;6.56;67.53;102461.66;6242435;23;20058;-88
2023/04/02 17:47:05;;;;;;;4.20;2.90;;;;;;;6.51;68.09;102466.13;6249223;23;20024;-87
2023/04/02 17:49:41;;;;;;;4.82;2.58;;;;;;;6.39;69.53;102478.56;6251218;23;20311;-86